sensor_id;sensor_type;location;lat;lon;timestamp;P1;durP1;ratioP1;P2;durP2;ratioP2
13090;SDS011;6611;52.604;13.438;2022-09-21T00:02:55;1.10;;;1.00;;
13090;SDS011;6611;52.604;13.438;2022-09-21T00:07:59;1.50;;;1.20;;
13090;SDS011;6611;52.604;13.438;2022-09-21T00:13:02;1.87;;;1.20;;
13090;SDS011;6611;52.604;13.438;2022-09-21T00:18:04;1.43;;;1.20;;
13090;SDS011;6611;52.604;13.438;2022-09-21T00:23:07;1.20;;;1.10;;
13090;SDS011;6611;52.604;13.438;2022-09-21T00:28:08;1.50;;;1.27;;
13090;SDS011;6611;52.604;13.438;2022-09-21T00:33:10;2.93;;;1.40;;
13090;SDS011;6611;52.604;13.438;2022-09-21T00:38:13;2.00;;;1.37;;
13090;SDS011;6611;52.604;13.438;2022-09-21T00:43:15;2.60;;;1.53;;
13090;SDS011;6611;52.604;13.438;2022-09-21T00:48:17;1.50;;;1.10;;
13090;SDS011;6611;52.604;13.438;2022-09-21T00:53:20;1.43;;;1.33;;
13090;SDS011;6611;52.604;13.438;2022-09-21T00:58:23;1.23;;;1.13;;
13090;SDS011;6611;52.604;13.438;2022-09-21T01:03:27;2.13;;;1.23;;
13090;SDS011;6611;52.604;13.438;2022-09-21T01:08:32;1.40;;;1.30;;
13090;SDS011;6611;52.604;13.438;2022-09-21T01:13:39;1.80;;;1.30;;
13090;SDS011;6611;52.604;13.438;2022-09-21T01:18:48;1.97;;;1.30;;
13090;SDS011;6611;52.604;13.438;2022-09-21T01:24:07;1.87;;;1.27;;
13090;SDS011;6611;52.604;13.438;2022-09-21T01:29:26;1.70;;;1.23;;
13090;SDS011;6611;52.604;13.438;2022-09-21T01:34:32;1.97;;;1.17;;
13090;SDS011;6611;52.604;13.438;2022-09-21T01:39:36;1.80;;;1.40;;
13090;SDS011;6611;52.604;13.438;2022-09-21T01:44:42;1.60;;;1.30;;
13090;SDS011;6611;52.604;13.438;2022-09-21T01:49:47;1.67;;;1.37;;
13090;SDS011;6611;52.604;13.438;2022-09-21T01:54:53;1.67;;;1.37;;
13090;SDS011;6611;52.604;13.438;2022-09-21T02:00:01;1.73;;;1.20;;
13090;SDS011;6611;52.604;13.438;2022-09-21T02:05:06;1.60;;;1.30;;
13090;SDS011;6611;52.604;13.438;2022-09-21T02:10:09;1.63;;;1.37;;
13090;SDS011;6611;52.604;13.438;2022-09-21T02:15:18;1.70;;;1.20;;
13090;SDS011;6611;52.604;13.438;2022-09-21T02:20:24;1.70;;;1.40;;
13090;SDS011;6611;52.604;13.438;2022-09-21T02:25:33;1.70;;;1.30;;
13090;SDS011;6611;52.604;13.438;2022-09-21T02:30:43;1.50;;;1.30;;
13090;SDS011;6611;52.604;13.438;2022-09-21T02:35:49;1.10;;;1.00;;
13090;SDS011;6611;52.604;13.438;2022-09-21T02:40:54;1.33;;;1.00;;
13090;SDS011;6611;52.604;13.438;2022-09-21T02:46:04;2.37;;;1.33;;
13090;SDS011;6611;52.604;13.438;2022-09-21T02:51:10;1.67;;;1.07;;
13090;SDS011;6611;52.604;13.438;2022-09-21T02:56:16;2.07;;;1.30;;
13090;SDS011;6611;52.604;13.438;2022-09-21T03:01:19;1.80;;;1.17;;
13090;SDS011;6611;52.604;13.438;2022-09-21T03:06:23;1.20;;;1.07;;
13090;SDS011;6611;52.604;13.438;2022-09-21T03:11:24;2.07;;;1.37;;
13090;SDS011;6611;52.604;13.438;2022-09-21T03:16:27;1.50;;;1.27;;
13090;SDS011;6611;52.604;13.438;2022-09-21T03:21:29;2.93;;;1.37;;
13090;SDS011;6611;52.604;13.438;2022-09-21T03:26:30;1.40;;;1.10;;
13090;SDS011;6611;52.604;13.438;2022-09-21T03:31:33;1.80;;;0.90;;
13090;SDS011;6611;52.604;13.438;2022-09-21T03:36:35;1.30;;;1.20;;
13090;SDS011;6611;52.604;13.438;2022-09-21T03:41:37;1.23;;;1.13;;
13090;SDS011;6611;52.604;13.438;2022-09-21T03:46:40;1.93;;;1.30;;
13090;SDS011;6611;52.604;13.438;2022-09-21T03:51:42;1.53;;;0.90;;
13090;SDS011;6611;52.604;13.438;2022-09-21T03:56:43;3.13;;;1.23;;
13090;SDS011;6611;52.604;13.438;2022-09-21T04:01:46;2.27;;;1.30;;
13090;SDS011;6611;52.604;13.438;2022-09-21T04:06:47;2.47;;;1.20;;
13090;SDS011;6611;52.604;13.438;2022-09-21T04:11:50;1.33;;;1.03;;
13090;SDS011;6611;52.604;13.438;2022-09-21T04:16:54;4.00;;;1.40;;
13090;SDS011;6611;52.604;13.438;2022-09-21T04:21:55;2.93;;;1.60;;
13090;SDS011;6611;52.604;13.438;2022-09-21T04:26:57;2.13;;;1.40;;
13090;SDS011;6611;52.604;13.438;2022-09-21T04:32:00;2.80;;;1.43;;
13090;SDS011;6611;52.604;13.438;2022-09-21T04:37:02;1.77;;;1.30;;
13090;SDS011;6611;52.604;13.438;2022-09-21T04:42:03;1.63;;;1.20;;
13090;SDS011;6611;52.604;13.438;2022-09-21T04:47:07;4.10;;;1.50;;
13090;SDS011;6611;52.604;13.438;2022-09-21T04:52:09;1.50;;;1.00;;
13090;SDS011;6611;52.604;13.438;2022-09-21T04:57:10;2.00;;;1.40;;
13090;SDS011;6611;52.604;13.438;2022-09-21T05:02:13;3.23;;;1.50;;
13090;SDS011;6611;52.604;13.438;2022-09-21T05:07:15;2.60;;;1.33;;
13090;SDS011;6611;52.604;13.438;2022-09-21T05:12:17;1.60;;;0.90;;
13090;SDS011;6611;52.604;13.438;2022-09-21T05:17:20;2.67;;;1.53;;
13090;SDS011;6611;52.604;13.438;2022-09-21T05:22:22;3.00;;;1.40;;
13090;SDS011;6611;52.604;13.438;2022-09-21T05:27:24;2.17;;;1.20;;
13090;SDS011;6611;52.604;13.438;2022-09-21T05:32:27;2.63;;;1.17;;
13090;SDS011;6611;52.604;13.438;2022-09-21T05:37:46;1.37;;;1.00;;
13090;SDS011;6611;52.604;13.438;2022-09-21T05:42:52;1.37;;;1.17;;
13090;SDS011;6611;52.604;13.438;2022-09-21T05:48:01;2.67;;;1.23;;
13090;SDS011;6611;52.604;13.438;2022-09-21T05:53:15;2.03;;;1.50;;
13090;SDS011;6611;52.604;13.438;2022-09-21T05:58:27;1.83;;;1.40;;
13090;SDS011;6611;52.604;13.438;2022-09-21T06:03:38;6.50;;;1.63;;
13090;SDS011;6611;52.604;13.438;2022-09-21T06:08:42;1.77;;;1.67;;
13090;SDS011;6611;52.604;13.438;2022-09-21T06:13:43;2.93;;;1.63;;
13090;SDS011;6611;52.604;13.438;2022-09-21T06:18:46;3.93;;;2.27;;
13090;SDS011;6611;52.604;13.438;2022-09-21T06:23:47;4.93;;;2.40;;
13090;SDS011;6611;52.604;13.438;2022-09-21T06:28:49;2.70;;;1.70;;
13090;SDS011;6611;52.604;13.438;2022-09-21T06:33:52;2.23;;;1.80;;
13090;SDS011;6611;52.604;13.438;2022-09-21T06:38:54;3.00;;;2.03;;
13090;SDS011;6611;52.604;13.438;2022-09-21T06:43:55;4.60;;;2.10;;
13090;SDS011;6611;52.604;13.438;2022-09-21T06:48:58;3.03;;;1.70;;
13090;SDS011;6611;52.604;13.438;2022-09-21T06:54:00;2.37;;;1.70;;
13090;SDS011;6611;52.604;13.438;2022-09-21T06:59:01;2.20;;;1.70;;
13090;SDS011;6611;52.604;13.438;2022-09-21T07:04:04;1.93;;;1.73;;
13090;SDS011;6611;52.604;13.438;2022-09-21T07:09:08;1.53;;;1.43;;
13090;SDS011;6611;52.604;13.438;2022-09-21T07:14:09;3.70;;;1.53;;
13090;SDS011;6611;52.604;13.438;2022-09-21T07:19:12;3.13;;;2.67;;
13090;SDS011;6611;52.604;13.438;2022-09-21T07:24:14;4.57;;;2.80;;
13090;SDS011;6611;52.604;13.438;2022-09-21T07:29:15;4.27;;;2.63;;
13090;SDS011;6611;52.604;13.438;2022-09-21T07:34:18;3.50;;;2.70;;
13090;SDS011;6611;52.604;13.438;2022-09-21T07:39:20;2.63;;;1.60;;
13090;SDS011;6611;52.604;13.438;2022-09-21T07:44:21;3.20;;;2.30;;
13090;SDS011;6611;52.604;13.438;2022-09-21T07:49:24;2.80;;;1.73;;
13090;SDS011;6611;52.604;13.438;2022-09-21T07:54:26;2.47;;;1.53;;
13090;SDS011;6611;52.604;13.438;2022-09-21T07:59:27;2.10;;;1.60;;
13090;SDS011;6611;52.604;13.438;2022-09-21T08:04:33;3.10;;;2.07;;
13090;SDS011;6611;52.604;13.438;2022-09-21T08:09:34;2.50;;;1.40;;
13090;SDS011;6611;52.604;13.438;2022-09-21T08:14:36;4.53;;;1.87;;
13090;SDS011;6611;52.604;13.438;2022-09-21T08:19:39;5.67;;;2.57;;
13090;SDS011;6611;52.604;13.438;2022-09-21T08:24:40;4.27;;;2.43;;
13090;SDS011;6611;52.604;13.438;2022-09-21T08:29:43;7.03;;;4.00;;
13090;SDS011;6611;52.604;13.438;2022-09-21T08:34:46;2.80;;;2.27;;
13090;SDS011;6611;52.604;13.438;2022-09-21T08:39:48;4.20;;;2.90;;
13090;SDS011;6611;52.604;13.438;2022-09-21T08:44:50;2.47;;;2.00;;
13090;SDS011;6611;52.604;13.438;2022-09-21T08:49:56;3.30;;;1.67;;
13090;SDS011;6611;52.604;13.438;2022-09-21T08:55:00;1.80;;;1.50;;
13090;SDS011;6611;52.604;13.438;2022-09-21T09:00:06;1.67;;;1.57;;
13090;SDS011;6611;52.604;13.438;2022-09-21T09:05:22;3.17;;;2.50;;
13090;SDS011;6611;52.604;13.438;2022-09-21T09:10:35;2.97;;;1.60;;
13090;SDS011;6611;52.604;13.438;2022-09-21T09:15:41;2.93;;;1.67;;
13090;SDS011;6611;52.604;13.438;2022-09-21T09:20:53;2.37;;;1.70;;
13090;SDS011;6611;52.604;13.438;2022-09-21T09:25:58;2.77;;;1.73;;
13090;SDS011;6611;52.604;13.438;2022-09-21T09:31:03;1.70;;;1.20;;
13090;SDS011;6611;52.604;13.438;2022-09-21T09:36:12;2.67;;;1.47;;
13090;SDS011;6611;52.604;13.438;2022-09-21T09:41:24;2.40;;;1.33;;
13090;SDS011;6611;52.604;13.438;2022-09-21T09:46:42;1.20;;;1.10;;
13090;SDS011;6611;52.604;13.438;2022-09-21T09:51:55;2.53;;;1.20;;
13090;SDS011;6611;52.604;13.438;2022-09-21T09:56:57;2.07;;;0.87;;
13090;SDS011;6611;52.604;13.438;2022-09-21T10:02:01;1.63;;;1.10;;
13090;SDS011;6611;52.604;13.438;2022-09-21T10:07:05;0.73;;;0.73;;
13090;SDS011;6611;52.604;13.438;2022-09-21T10:12:18;0.53;;;0.50;;
13090;SDS011;6611;52.604;13.438;2022-09-21T10:17:24;0.40;;;0.40;;
13090;SDS011;6611;52.604;13.438;2022-09-21T10:22:27;0.70;;;0.60;;
13090;SDS011;6611;52.604;13.438;2022-09-21T10:27:32;0.93;;;0.40;;
13090;SDS011;6611;52.604;13.438;2022-09-21T10:32:35;0.67;;;0.40;;
13090;SDS011;6611;52.604;13.438;2022-09-21T10:37:39;0.30;;;0.30;;
13090;SDS011;6611;52.604;13.438;2022-09-21T10:42:41;0.40;;;0.40;;
13090;SDS011;6611;52.604;13.438;2022-09-21T10:47:45;0.40;;;0.37;;
13090;SDS011;6611;52.604;13.438;2022-09-21T10:52:49;0.40;;;0.40;;
13090;SDS011;6611;52.604;13.438;2022-09-21T10:57:55;1.90;;;0.60;;
13090;SDS011;6611;52.604;13.438;2022-09-21T11:02:58;0.30;;;0.30;;
13090;SDS011;6611;52.604;13.438;2022-09-21T11:08:04;1.17;;;0.60;;
13090;SDS011;6611;52.604;13.438;2022-09-21T11:13:15;0.30;;;0.30;;
13090;SDS011;6611;52.604;13.438;2022-09-21T11:18:25;0.53;;;0.50;;
13090;SDS011;6611;52.604;13.438;2022-09-21T11:23:43;0.53;;;0.40;;
13090;SDS011;6611;52.604;13.438;2022-09-21T11:28:51;0.87;;;0.40;;
13090;SDS011;6611;52.604;13.438;2022-09-21T11:34:03;1.90;;;0.40;;
13090;SDS011;6611;52.604;13.438;2022-09-21T11:39:16;0.63;;;0.57;;
13090;SDS011;6611;52.604;13.438;2022-09-21T11:44:31;0.60;;;0.40;;
13090;SDS011;6611;52.604;13.438;2022-09-21T11:49:49;1.20;;;0.50;;
13090;SDS011;6611;52.604;13.438;2022-09-21T11:55:14;0.53;;;0.50;;
13090;SDS011;6611;52.604;13.438;2022-09-21T12:00:32;0.43;;;0.40;;
13090;SDS011;6611;52.604;13.438;2022-09-21T12:05:45;0.30;;;0.30;;
13090;SDS011;6611;52.604;13.438;2022-09-21T12:11:00;0.30;;;0.30;;
13090;SDS011;6611;52.604;13.438;2022-09-21T12:16:12;0.43;;;0.33;;
13090;SDS011;6611;52.604;13.438;2022-09-21T12:21:21;0.30;;;0.27;;
13090;SDS011;6611;52.604;13.438;2022-09-21T12:26:30;0.30;;;0.30;;
13090;SDS011;6611;52.604;13.438;2022-09-21T12:31:37;0.30;;;0.30;;
13090;SDS011;6611;52.604;13.438;2022-09-21T12:36:50;0.40;;;0.30;;
13090;SDS011;6611;52.604;13.438;2022-09-21T12:42:02;0.50;;;0.50;;
13090;SDS011;6611;52.604;13.438;2022-09-21T12:47:08;0.53;;;0.50;;
13090;SDS011;6611;52.604;13.438;2022-09-21T12:52:13;0.77;;;0.50;;
13090;SDS011;6611;52.604;13.438;2022-09-21T12:57:23;0.80;;;0.57;;
13090;SDS011;6611;52.604;13.438;2022-09-21T13:02:32;0.70;;;0.60;;
13090;SDS011;6611;52.604;13.438;2022-09-21T13:07:39;0.50;;;0.50;;
13090;SDS011;6611;52.604;13.438;2022-09-21T13:13:03;2.60;;;0.60;;
13090;SDS011;6611;52.604;13.438;2022-09-21T13:18:14;0.70;;;0.60;;
13090;SDS011;6611;52.604;13.438;2022-09-21T13:23:20;0.50;;;0.47;;
13090;SDS011;6611;52.604;13.438;2022-09-21T13:28:39;0.83;;;0.57;;
13090;SDS011;6611;52.604;13.438;2022-09-21T13:39:17;0.57;;;0.40;;
13090;SDS011;6611;52.604;13.438;2022-09-21T13:44:33;0.40;;;0.40;;
13090;SDS011;6611;52.604;13.438;2022-09-21T13:49:40;1.63;;;0.90;;
13090;SDS011;6611;52.604;13.438;2022-09-21T13:54:46;2.30;;;1.07;;
13090;SDS011;6611;52.604;13.438;2022-09-21T14:00:00;1.57;;;0.90;;
13090;SDS011;6611;52.604;13.438;2022-09-21T14:05:07;1.10;;;0.80;;
13090;SDS011;6611;52.604;13.438;2022-09-21T14:10:24;1.20;;;0.90;;
13090;SDS011;6611;52.604;13.438;2022-09-21T14:15:34;0.50;;;0.50;;
13090;SDS011;6611;52.604;13.438;2022-09-21T14:20:38;0.63;;;0.50;;
13090;SDS011;6611;52.604;13.438;2022-09-21T14:25:46;1.60;;;1.13;;
13090;SDS011;6611;52.604;13.438;2022-09-21T14:30:53;3.03;;;1.67;;
13090;SDS011;6611;52.604;13.438;2022-09-21T14:35:59;0.83;;;0.70;;
13090;SDS011;6611;52.604;13.438;2022-09-21T14:41:07;0.67;;;0.40;;
13090;SDS011;6611;52.604;13.438;2022-09-21T14:46:20;0.67;;;0.67;;
13090;SDS011;6611;52.604;13.438;2022-09-21T14:51:33;0.87;;;0.60;;
13090;SDS011;6611;52.604;13.438;2022-09-21T14:56:44;1.17;;;0.57;;
13090;SDS011;6611;52.604;13.438;2022-09-21T15:01:58;0.60;;;0.60;;
13090;SDS011;6611;52.604;13.438;2022-09-21T15:07:08;0.80;;;0.70;;
13090;SDS011;6611;52.604;13.438;2022-09-21T15:12:50;0.90;;;0.60;;
13090;SDS011;6611;52.604;13.438;2022-09-21T15:17:58;0.50;;;0.40;;
13090;SDS011;6611;52.604;13.438;2022-09-21T15:23:01;1.13;;;1.00;;
13090;SDS011;6611;52.604;13.438;2022-09-21T15:28:16;1.17;;;0.80;;
13090;SDS011;6611;52.604;13.438;2022-09-21T15:33:19;1.03;;;0.63;;
13090;SDS011;6611;52.604;13.438;2022-09-21T15:38:27;0.50;;;0.40;;
13090;SDS011;6611;52.604;13.438;2022-09-21T15:43:31;0.90;;;0.60;;
13090;SDS011;6611;52.604;13.438;2022-09-21T15:48:35;2.43;;;1.00;;
13090;SDS011;6611;52.604;13.438;2022-09-21T15:53:42;0.53;;;0.50;;
13090;SDS011;6611;52.604;13.438;2022-09-21T15:58:45;1.20;;;0.80;;
13090;SDS011;6611;52.604;13.438;2022-09-21T16:04:00;0.87;;;0.57;;
13090;SDS011;6611;52.604;13.438;2022-09-21T16:14:35;0.50;;;0.30;;
13090;SDS011;6611;52.604;13.438;2022-09-21T16:20:12;0.60;;;0.50;;
13090;SDS011;6611;52.604;13.438;2022-09-21T16:25:21;0.40;;;0.30;;
13090;SDS011;6611;52.604;13.438;2022-09-21T16:30:42;0.93;;;0.60;;
13090;SDS011;6611;52.604;13.438;2022-09-21T16:35:47;1.10;;;0.80;;
13090;SDS011;6611;52.604;13.438;2022-09-21T16:40:49;1.27;;;0.97;;
13090;SDS011;6611;52.604;13.438;2022-09-21T16:45:50;0.80;;;0.80;;
13090;SDS011;6611;52.604;13.438;2022-09-21T16:50:53;3.80;;;1.50;;
13090;SDS011;6611;52.604;13.438;2022-09-21T16:55:55;1.87;;;1.43;;
13090;SDS011;6611;52.604;13.438;2022-09-21T17:00:57;1.87;;;1.30;;
13090;SDS011;6611;52.604;13.438;2022-09-21T17:06:00;1.13;;;0.80;;
13090;SDS011;6611;52.604;13.438;2022-09-21T17:11:02;0.70;;;0.57;;
13090;SDS011;6611;52.604;13.438;2022-09-21T17:16:03;1.20;;;1.10;;
13090;SDS011;6611;52.604;13.438;2022-09-21T17:21:07;1.17;;;0.70;;
13090;SDS011;6611;52.604;13.438;2022-09-21T17:26:11;2.20;;;0.83;;
13090;SDS011;6611;52.604;13.438;2022-09-21T17:31:16;1.23;;;1.10;;
13090;SDS011;6611;52.604;13.438;2022-09-21T17:36:21;1.40;;;0.93;;
13090;SDS011;6611;52.604;13.438;2022-09-21T17:41:23;1.57;;;1.10;;
13090;SDS011;6611;52.604;13.438;2022-09-21T17:46:31;1.03;;;1.00;;
13090;SDS011;6611;52.604;13.438;2022-09-21T17:51:42;1.40;;;1.00;;
13090;SDS011;6611;52.604;13.438;2022-09-21T17:57:04;1.57;;;1.10;;
13090;SDS011;6611;52.604;13.438;2022-09-21T18:02:15;0.87;;;0.87;;
13090;SDS011;6611;52.604;13.438;2022-09-21T18:07:22;1.33;;;1.13;;
13090;SDS011;6611;52.604;13.438;2022-09-21T18:12:31;1.77;;;1.30;;
13090;SDS011;6611;52.604;13.438;2022-09-21T18:17:51;2.47;;;1.53;;
13090;SDS011;6611;52.604;13.438;2022-09-21T18:23:04;1.57;;;1.40;;
13090;SDS011;6611;52.604;13.438;2022-09-21T18:28:15;1.90;;;1.60;;
13090;SDS011;6611;52.604;13.438;2022-09-21T18:33:22;3.07;;;1.57;;
13090;SDS011;6611;52.604;13.438;2022-09-21T18:38:32;6.03;;;2.10;;
13090;SDS011;6611;52.604;13.438;2022-09-21T18:43:43;2.00;;;1.80;;
13090;SDS011;6611;52.604;13.438;2022-09-21T18:48:58;3.07;;;2.00;;
13090;SDS011;6611;52.604;13.438;2022-09-21T18:54:04;2.10;;;1.90;;
13090;SDS011;6611;52.604;13.438;2022-09-21T18:59:12;2.83;;;1.77;;
13090;SDS011;6611;52.604;13.438;2022-09-21T19:04:15;2.37;;;1.67;;
13090;SDS011;6611;52.604;13.438;2022-09-21T19:09:23;2.67;;;1.77;;
13090;SDS011;6611;52.604;13.438;2022-09-21T19:14:38;4.03;;;1.90;;
13090;SDS011;6611;52.604;13.438;2022-09-21T19:19:49;4.47;;;1.90;;
13090;SDS011;6611;52.604;13.438;2022-09-21T19:25:03;2.77;;;2.10;;
13090;SDS011;6611;52.604;13.438;2022-09-21T19:30:12;4.30;;;2.50;;
13090;SDS011;6611;52.604;13.438;2022-09-21T19:35:19;3.00;;;2.27;;
13090;SDS011;6611;52.604;13.438;2022-09-21T19:40:25;2.20;;;2.00;;
13090;SDS011;6611;52.604;13.438;2022-09-21T19:45:30;3.00;;;2.20;;
13090;SDS011;6611;52.604;13.438;2022-09-21T19:50:41;3.40;;;2.70;;
13090;SDS011;6611;52.604;13.438;2022-09-21T19:55:50;4.03;;;2.50;;
13090;SDS011;6611;52.604;13.438;2022-09-21T20:01:09;2.80;;;2.50;;
13090;SDS011;6611;52.604;13.438;2022-09-21T20:06:15;3.40;;;2.50;;
13090;SDS011;6611;52.604;13.438;2022-09-21T20:11:23;2.47;;;2.07;;
13090;SDS011;6611;52.604;13.438;2022-09-21T20:16:33;1.90;;;1.60;;
13090;SDS011;6611;52.604;13.438;2022-09-21T20:21:41;3.20;;;1.60;;
13090;SDS011;6611;52.604;13.438;2022-09-21T20:26:45;2.87;;;1.60;;
13090;SDS011;6611;52.604;13.438;2022-09-21T20:31:49;3.20;;;1.37;;
13090;SDS011;6611;52.604;13.438;2022-09-21T20:36:53;1.60;;;1.40;;
13090;SDS011;6611;52.604;13.438;2022-09-21T20:41:56;1.37;;;1.27;;
13090;SDS011;6611;52.604;13.438;2022-09-21T20:46:58;2.03;;;1.50;;
13090;SDS011;6611;52.604;13.438;2022-09-21T20:52:00;2.10;;;1.50;;
13090;SDS011;6611;52.604;13.438;2022-09-21T20:57:04;2.50;;;1.43;;
13090;SDS011;6611;52.604;13.438;2022-09-21T21:02:05;1.87;;;1.43;;
13090;SDS011;6611;52.604;13.438;2022-09-21T21:07:09;3.87;;;2.17;;
13090;SDS011;6611;52.604;13.438;2022-09-21T21:12:12;3.10;;;1.90;;
13090;SDS011;6611;52.604;13.438;2022-09-21T21:17:15;4.23;;;2.87;;
13090;SDS011;6611;52.604;13.438;2022-09-21T21:22:17;4.07;;;2.80;;
13090;SDS011;6611;52.604;13.438;2022-09-21T21:27:20;4.10;;;2.23;;
13090;SDS011;6611;52.604;13.438;2022-09-21T21:32:24;2.73;;;1.93;;
13090;SDS011;6611;52.604;13.438;2022-09-21T21:37:27;2.30;;;1.60;;
13090;SDS011;6611;52.604;13.438;2022-09-21T21:42:30;2.17;;;1.97;;
13090;SDS011;6611;52.604;13.438;2022-09-21T21:47:31;2.63;;;1.80;;
13090;SDS011;6611;52.604;13.438;2022-09-21T21:52:33;2.80;;;1.57;;
13090;SDS011;6611;52.604;13.438;2022-09-21T21:57:36;2.20;;;1.43;;
13090;SDS011;6611;52.604;13.438;2022-09-21T22:02:37;4.33;;;1.70;;
13090;SDS011;6611;52.604;13.438;2022-09-21T22:07:39;2.60;;;1.77;;
13090;SDS011;6611;52.604;13.438;2022-09-21T22:12:42;2.83;;;1.80;;
13090;SDS011;6611;52.604;13.438;2022-09-21T22:17:44;2.40;;;1.70;;
13090;SDS011;6611;52.604;13.438;2022-09-21T22:22:45;2.00;;;1.67;;
13090;SDS011;6611;52.604;13.438;2022-09-21T22:27:48;3.23;;;2.13;;
13090;SDS011;6611;52.604;13.438;2022-09-21T22:32:50;6.70;;;2.10;;
13090;SDS011;6611;52.604;13.438;2022-09-21T22:37:51;4.67;;;2.40;;
13090;SDS011;6611;52.604;13.438;2022-09-21T22:42:55;3.67;;;2.17;;
13090;SDS011;6611;52.604;13.438;2022-09-21T22:47:56;3.73;;;2.00;;
13090;SDS011;6611;52.604;13.438;2022-09-21T22:52:57;2.43;;;1.80;;
13090;SDS011;6611;52.604;13.438;2022-09-21T22:58:00;2.50;;;1.63;;
13090;SDS011;6611;52.604;13.438;2022-09-21T23:03:02;2.00;;;1.30;;
13090;SDS011;6611;52.604;13.438;2022-09-21T23:08:04;1.53;;;1.33;;
13090;SDS011;6611;52.604;13.438;2022-09-21T23:13:07;2.07;;;1.53;;
13090;SDS011;6611;52.604;13.438;2022-09-21T23:18:09;3.33;;;1.30;;
13090;SDS011;6611;52.604;13.438;2022-09-21T23:23:10;2.07;;;1.60;;
13090;SDS011;6611;52.604;13.438;2022-09-21T23:28:14;2.57;;;1.50;;
13090;SDS011;6611;52.604;13.438;2022-09-21T23:33:16;2.13;;;1.40;;
13090;SDS011;6611;52.604;13.438;2022-09-21T23:38:18;1.60;;;1.33;;
13090;SDS011;6611;52.604;13.438;2022-09-21T23:43:21;2.37;;;1.53;;
13090;SDS011;6611;52.604;13.438;2022-09-21T23:48:22;2.40;;;1.43;;
13090;SDS011;6611;52.604;13.438;2022-09-21T23:53:25;2.07;;;1.37;;
13090;SDS011;6611;52.604;13.438;2022-09-21T23:58:28;1.67;;;1.33;;
